createdAt,value
2022-10-26T00:00:35.349Z,17.60
2022-10-26T00:03:04.923Z,17.39
2022-10-26T00:05:35.943Z,17.38
2022-10-26T00:08:04.326Z,17.42
2022-10-26T00:10:32.365Z,17.36
2022-10-26T00:13:00.392Z,17.28
2022-10-26T00:15:28.259Z,17.13
2022-10-26T00:17:56.353Z,16.89
2022-10-26T00:20:24.344Z,17.06
2022-10-26T00:22:53.615Z,17.10
2022-10-26T00:25:21.777Z,16.97
2022-10-26T00:27:49.925Z,17.04
2022-10-26T00:30:18.192Z,17.04
2022-10-26T00:32:46.094Z,16.96
2022-10-26T00:35:22.883Z,17.28
2022-10-26T00:37:59.099Z,17.31
2022-10-26T00:40:30.309Z,17.36
2022-10-26T00:42:58.730Z,17.21
2022-10-26T00:45:28.582Z,17.45
2022-10-26T00:48:01.153Z,17.71
2022-10-26T00:50:33.485Z,17.83
2022-10-26T00:53:06.219Z,17.88
2022-10-26T00:55:38.651Z,18.03
2022-10-26T00:58:08.298Z,17.60
2022-10-26T01:00:36.228Z,17.02
2022-10-26T01:03:07.675Z,16.92
2022-10-26T01:05:38.762Z,17.05
2022-10-26T01:08:09.819Z,17.43
2022-10-26T01:10:40.883Z,18.02
2022-10-26T01:13:09.024Z,17.99
2022-10-26T01:15:47.436Z,18.05
2022-10-26T01:18:23.862Z,17.28
2022-10-26T01:21:22.905Z,17.52
2022-10-26T01:24:09.253Z,17.65
2022-10-26T01:27:06.133Z,17.09
2022-10-26T01:30:00.975Z,16.41
2022-10-26T01:32:35.060Z,16.36
2022-10-26T01:35:09.636Z,16.17
2022-10-26T01:37:41.537Z,16.16
2022-10-26T01:40:17.814Z,15.95
2022-10-26T01:42:50.893Z,16.17
2022-10-26T01:45:20.274Z,16.15
2022-10-26T01:47:50.996Z,16.03
2022-10-26T01:50:21.013Z,16.66
2022-10-26T01:52:51.168Z,16.87
2022-10-26T01:55:46.367Z,16.17
2022-10-26T01:58:31.742Z,16.15
2022-10-26T02:01:07.838Z,16.06
2022-10-26T02:03:47.567Z,16.39
2022-10-26T02:06:24.029Z,16.48
2022-10-26T02:09:05.089Z,16.39
2022-10-26T02:11:40.196Z,16.31
2022-10-26T02:16:58.349Z,16.22
2022-10-26T02:19:35.244Z,16.33
2022-10-26T02:22:10.995Z,15.89
2022-10-26T02:24:41.009Z,16.17
2022-10-26T02:27:13.995Z,16.45
2022-10-26T02:29:44.015Z,16.70
2022-10-26T02:32:13.324Z,16.90
2022-10-26T02:34:46.909Z,16.95
2022-10-26T02:37:18.110Z,16.65
2022-10-26T02:39:49.401Z,16.67
2022-10-26T02:42:19.468Z,16.73
2022-10-26T02:44:51.420Z,16.53
2022-10-26T02:47:20.782Z,16.71
2022-10-26T02:49:50.309Z,16.85
2022-10-26T02:52:25.124Z,16.42
2022-10-26T02:54:57.739Z,16.00
2022-10-26T02:57:33.144Z,16.06
2022-10-26T03:00:01.689Z,15.97
2022-10-26T03:02:30.769Z,16.00
2022-10-26T03:05:10.772Z,16.04
2022-10-26T03:07:38.697Z,16.24
2022-10-26T03:10:07.683Z,16.24
2022-10-26T03:12:35.534Z,16.03
2022-10-26T03:15:03.377Z,16.04
2022-10-26T03:17:31.245Z,15.94
2022-10-26T03:20:00.445Z,16.02
2022-10-26T03:22:28.326Z,16.11
2022-10-26T03:24:56.362Z,16.22
2022-10-26T03:27:24.332Z,16.32
2022-10-26T03:29:52.253Z,16.10
2022-10-26T03:32:20.226Z,16.17
2022-10-26T03:34:48.090Z,16.25
2022-10-26T03:37:17.391Z,16.31
2022-10-26T03:39:45.855Z,16.36
2022-10-26T03:42:13.733Z,16.33
2022-10-26T03:44:41.690Z,16.33
2022-10-26T03:47:09.878Z,16.27
2022-10-26T03:49:37.836Z,16.30
2022-10-26T03:52:05.929Z,16.41
2022-10-26T03:54:35.186Z,16.44
2022-10-26T03:57:03.152Z,16.46
2022-10-26T03:59:31.121Z,16.46
2022-10-26T04:01:59.034Z,16.23
2022-10-26T04:04:27.065Z,16.42
2022-10-26T04:06:55.029Z,16.32
2022-10-26T04:09:22.965Z,16.21
2022-10-26T04:11:52.851Z,16.20
2022-10-26T04:14:20.891Z,16.22
2022-10-26T04:16:48.846Z,16.19
2022-10-26T04:19:16.792Z,16.20
2022-10-26T04:21:44.718Z,16.21
2022-10-26T04:24:13.727Z,16.06
2022-10-26T04:26:41.764Z,16.30
2022-10-26T04:29:11.707Z,16.41
2022-10-26T04:31:39.752Z,16.57
2022-10-26T04:34:07.682Z,16.63
2022-10-26T04:36:35.770Z,16.60
2022-10-26T04:39:03.765Z,16.42
2022-10-26T04:41:31.754Z,16.60
2022-10-26T04:43:59.794Z,16.51
2022-10-26T04:46:30.606Z,16.64
2022-10-26T04:48:58.593Z,16.59
2022-10-26T04:51:27.994Z,16.85
2022-10-26T04:53:56.068Z,16.90
2022-10-26T04:56:24.055Z,16.92
2022-10-26T04:58:56.292Z,16.86
2022-10-26T05:01:24.548Z,16.80
2022-10-26T05:03:54.808Z,16.66
2022-10-26T05:06:23.310Z,16.71
2022-10-26T05:08:51.283Z,16.74
2022-10-26T05:11:19.557Z,16.71
2022-10-26T05:13:51.206Z,16.86
2022-10-26T05:16:19.448Z,16.76
2022-10-26T05:18:49.438Z,16.63
2022-10-26T05:21:20.577Z,16.54
2022-10-26T05:23:52.521Z,16.20
2022-10-26T05:26:20.776Z,15.99
2022-10-26T05:28:48.747Z,15.92
2022-10-26T05:31:16.859Z,15.95
2022-10-26T05:33:44.869Z,15.83
2022-10-26T05:36:12.799Z,16.05
2022-10-26T05:38:42.201Z,16.20
2022-10-26T05:41:10.055Z,16.30
2022-10-26T05:43:37.962Z,16.38
2022-10-26T05:46:06.212Z,16.37
2022-10-26T05:48:34.184Z,16.38
2022-10-26T05:51:02.197Z,16.20
2022-10-26T05:53:30.257Z,16.45
2022-10-26T05:56:00.235Z,16.72
2022-10-26T05:58:28.615Z,16.20
2022-10-26T06:01:11.544Z,16.60
2022-10-26T06:03:55.930Z,16.76
2022-10-26T06:06:24.355Z,16.66
2022-10-26T06:08:52.677Z,16.80
2022-10-26T06:11:22.557Z,16.63
2022-10-26T06:13:51.511Z,16.40
2022-10-26T06:16:33.323Z,16.58
2022-10-26T06:19:09.984Z,16.81
2022-10-26T06:21:56.116Z,16.63
2022-10-26T06:24:30.664Z,16.53
2022-10-26T06:27:05.914Z,16.61
2022-10-26T06:29:45.925Z,16.93
2022-10-26T06:32:13.897Z,17.15
2022-10-26T06:34:47.684Z,17.06
2022-10-26T06:37:16.157Z,17.07
2022-10-26T06:39:50.019Z,16.96
2022-10-26T06:42:22.663Z,16.84
2022-10-26T06:44:51.093Z,16.74
2022-10-26T06:47:23.771Z,16.58
2022-10-26T06:50:01.393Z,16.58
2022-10-26T06:52:37.571Z,16.79
2022-10-26T06:55:06.489Z,16.93
2022-10-26T06:58:13.022Z,16.67
2022-10-26T07:00:44.178Z,16.61
2022-10-26T07:03:12.583Z,16.55
2022-10-26T07:05:40.726Z,16.47
2022-10-26T07:08:12.659Z,16.23
2022-10-26T07:10:42.279Z,16.20
2022-10-26T07:13:12.255Z,16.10
2022-10-26T07:15:40.877Z,16.15
2022-10-26T07:18:10.832Z,16.22
2022-10-26T07:20:40.788Z,16.24
2022-10-26T07:23:12.706Z,16.41
2022-10-26T07:25:42.786Z,16.57
2022-10-26T07:28:12.719Z,16.72
2022-10-26T07:30:42.102Z,16.94
2022-10-26T07:33:11.880Z,17.15
2022-10-26T07:35:40.074Z,17.36
2022-10-26T07:38:08.772Z,17.36
2022-10-26T07:40:38.257Z,17.56
2022-10-26T07:43:06.757Z,17.76
2022-10-26T07:45:36.781Z,17.89
2022-10-26T07:48:05.156Z,18.12
2022-10-26T07:50:33.052Z,18.27
2022-10-26T07:53:01.331Z,18.42
2022-10-26T07:55:29.315Z,17.89
2022-10-26T07:57:57.726Z,18.43
2022-10-26T08:00:26.471Z,17.89
2022-10-26T08:02:55.872Z,18.28
2022-10-26T08:05:24.150Z,17.94
2022-10-26T08:07:52.555Z,18.44
2022-10-26T08:10:20.664Z,18.37
2022-10-26T08:12:48.558Z,18.56
2022-10-26T08:15:16.554Z,18.33
2022-10-26T08:17:44.483Z,18.66
2022-10-26T08:20:14.108Z,18.90
2022-10-26T08:22:42.026Z,18.97
2022-10-26T08:25:10.590Z,19.06
2022-10-26T08:27:38.542Z,19.45
2022-10-26T08:30:07.557Z,19.33
2022-10-26T08:32:35.494Z,19.31
2022-10-26T08:35:03.341Z,19.31
2022-10-26T08:37:32.659Z,19.38
2022-10-26T08:40:03.149Z,19.41
2022-10-26T08:42:36.213Z,19.27
2022-10-26T08:45:12.238Z,19.48
2022-10-26T08:47:48.197Z,19.44
2022-10-26T08:50:23.934Z,19.64
2022-10-26T08:53:02.287Z,19.77
2022-10-26T08:55:36.219Z,19.88
2022-10-26T08:58:06.477Z,20.15
2022-10-26T09:00:34.693Z,20.18
2022-10-26T09:03:02.665Z,20.34
2022-10-26T09:05:39.935Z,20.38
2022-10-26T09:08:16.484Z,20.39
2022-10-26T09:10:55.041Z,20.32
2022-10-26T09:13:35.422Z,20.53
2022-10-26T09:16:07.819Z,20.70
2022-10-26T09:18:48.238Z,20.80
2022-10-26T09:21:27.852Z,20.73
2022-10-26T09:24:03.691Z,20.68
2022-10-26T09:26:39.061Z,20.77
2022-10-26T09:29:15.231Z,20.87
2022-10-26T09:31:45.471Z,20.79
2022-10-26T09:34:21.598Z,20.45
2022-10-26T09:36:54.621Z,20.99
2022-10-26T09:39:32.294Z,20.80
2022-10-26T09:42:05.824Z,20.62
2022-10-26T09:44:40.558Z,20.58
2022-10-26T09:47:18.687Z,20.93
2022-10-26T09:49:50.676Z,20.99
2022-10-26T09:52:18.630Z,21.12
2022-10-26T09:54:47.942Z,21.24
2022-10-26T09:57:19.266Z,21.20
2022-10-26T09:59:49.945Z,21.26
2022-10-26T10:02:37.825Z,21.15
2022-10-26T10:05:49.906Z,20.89
2022-10-26T10:08:18.739Z,20.85
2022-10-26T10:11:03.505Z,21.07
2022-10-26T10:13:33.628Z,21.11
2022-10-26T10:16:08.039Z,21.06
2022-10-26T10:18:38.642Z,20.83
2022-10-26T10:21:08.170Z,21.04
2022-10-26T10:23:41.283Z,21.28
2022-10-26T10:26:13.058Z,21.33
2022-10-26T10:28:44.464Z,21.23
2022-10-26T10:31:21.863Z,21.62
2022-10-26T10:33:50.459Z,21.68
2022-10-26T10:36:22.251Z,21.74
2022-10-26T10:38:52.076Z,21.79
2022-10-26T10:41:27.767Z,21.49
2022-10-26T10:44:00.030Z,21.61
2022-10-26T10:46:28.959Z,21.62
2022-10-26T10:49:04.862Z,22.09
2022-10-26T10:51:39.768Z,22.17
2022-10-26T10:54:19.354Z,22.31
2022-10-26T10:56:52.346Z,22.34
2022-10-26T10:59:45.966Z,22.51
2022-10-26T11:02:49.041Z,22.63
2022-10-26T11:05:27.370Z,22.96
2022-10-26T11:08:04.537Z,22.65
2022-10-26T11:10:37.442Z,22.73
2022-10-26T11:13:18.072Z,22.99
2022-10-26T11:15:50.542Z,23.05
2022-10-26T11:18:24.787Z,23.06
2022-10-26T11:23:35.163Z,23.20
2022-10-26T11:26:10.321Z,23.38
2022-10-26T11:28:44.277Z,23.61
2022-10-26T11:31:17.263Z,23.65
2022-10-26T11:33:50.256Z,23.99
2022-10-26T11:36:25.397Z,23.78
2022-10-26T11:39:03.980Z,23.92
2022-10-26T11:41:38.854Z,23.88
2022-10-26T11:44:18.278Z,24.20
2022-10-26T11:46:50.865Z,23.69
2022-10-26T11:49:25.136Z,23.65
2022-10-26T11:51:59.990Z,23.87
2022-10-26T11:54:33.704Z,23.52
2022-10-26T11:57:03.202Z,23.47
2022-10-26T11:59:36.721Z,23.58
2022-10-26T12:02:12.481Z,23.81
2022-10-26T12:04:42.740Z,24.06
2022-10-26T12:07:17.766Z,23.96
2022-10-26T12:09:45.988Z,23.83
2022-10-26T12:12:21.169Z,23.86
2022-10-26T12:14:57.966Z,24.10
2022-10-26T12:17:32.000Z,23.99
2022-10-26T12:20:07.095Z,24.07
2022-10-26T12:22:39.861Z,24.24
2022-10-26T12:25:19.510Z,24.01
2022-10-26T12:27:52.944Z,22.98
2022-10-26T12:30:29.149Z,23.21
2022-10-26T12:32:59.216Z,23.64
2022-10-26T12:35:45.044Z,23.62
2022-10-26T12:38:59.573Z,23.56
2022-10-26T12:41:28.280Z,23.54
2022-10-26T12:44:01.972Z,23.65
2022-10-26T12:46:43.584Z,24.10
2022-10-26T12:49:57.290Z,24.35
2022-10-26T12:52:48.602Z,24.46
2022-10-26T12:55:53.659Z,24.56
2022-10-26T12:58:48.820Z,24.10
2022-10-26T13:01:40.933Z,24.27
2022-10-26T13:04:48.093Z,24.50
2022-10-26T13:07:21.870Z,24.27
2022-10-26T13:09:57.693Z,24.26
2022-10-26T13:12:27.050Z,24.39
2022-10-26T13:15:03.420Z,24.46
2022-10-26T13:20:09.774Z,24.40
2022-10-26T13:22:47.911Z,24.10
2022-10-26T13:25:24.895Z,24.16
2022-10-26T13:28:02.999Z,24.27
2022-10-26T13:30:44.657Z,23.98
2022-10-26T13:33:34.163Z,24.18
2022-10-26T13:36:13.778Z,23.96
2022-10-26T13:38:42.390Z,22.27
2022-10-26T13:41:22.710Z,22.48
2022-10-26T13:43:53.056Z,22.33
2022-10-26T13:46:31.383Z,22.26
2022-10-26T13:49:06.948Z,22.15
2022-10-26T13:51:42.265Z,22.30
2022-10-26T13:54:25.018Z,22.36
2022-10-26T13:57:14.616Z,22.47
2022-10-26T13:59:45.564Z,22.80
2022-10-26T14:02:20.396Z,22.92
2022-10-26T14:04:49.578Z,22.91
2022-10-26T14:07:23.177Z,23.01
2022-10-26T14:09:56.281Z,23.05
2022-10-26T14:12:25.807Z,22.49
2022-10-26T14:14:54.827Z,22.81
2022-10-26T14:17:25.418Z,22.67
2022-10-26T14:19:54.242Z,22.82
2022-10-26T14:22:27.441Z,22.74
2022-10-26T14:24:57.797Z,22.57
2022-10-26T14:27:29.187Z,22.71
2022-10-26T14:30:21.143Z,22.53
2022-10-26T14:32:45.761Z,22.22
2022-10-26T14:35:14.275Z,22.33
2022-10-26T14:37:50.663Z,22.31
2022-10-26T14:40:20.868Z,22.22
2022-10-26T14:42:54.102Z,22.17
2022-10-26T14:45:43.385Z,22.31
2022-10-26T14:48:22.806Z,22.38
2022-10-26T14:51:01.489Z,22.25
2022-10-26T14:53:36.744Z,22.18
2022-10-26T14:56:06.953Z,22.23
2022-10-26T14:58:36.140Z,22.20
2022-10-26T15:01:18.118Z,22.13
2022-10-26T15:03:46.403Z,22.00
2022-10-26T15:06:30.597Z,22.05
2022-10-26T15:09:01.168Z,22.14
2022-10-26T15:11:32.511Z,22.34
2022-10-26T15:14:00.958Z,22.23
2022-10-26T15:16:31.116Z,21.96
2022-10-26T15:19:02.004Z,21.91
2022-10-26T15:21:33.528Z,21.93
2022-10-26T15:24:04.675Z,21.82
2022-10-26T15:26:32.665Z,21.83
2022-10-26T15:29:00.745Z,21.95
2022-10-26T15:31:35.069Z,21.71
2022-10-26T15:34:15.085Z,21.64
2022-10-26T15:36:44.509Z,21.79
2022-10-26T15:39:13.775Z,21.81
2022-10-26T15:41:47.707Z,21.80
2022-10-26T15:44:18.815Z,21.59
2022-10-26T15:46:48.064Z,21.50
2022-10-26T15:49:18.874Z,21.34
2022-10-26T15:51:48.529Z,21.38
2022-10-26T15:54:17.822Z,21.27
2022-10-26T15:56:46.161Z,21.18
2022-10-26T15:59:17.307Z,21.07
2022-10-26T16:01:45.501Z,21.08
2022-10-26T16:04:13.930Z,21.09
2022-10-26T16:06:43.099Z,21.07
2022-10-26T16:09:15.720Z,20.99
2022-10-26T16:11:45.845Z,21.02
2022-10-26T16:14:13.863Z,20.58
2022-10-26T16:16:41.877Z,20.71
2022-10-26T16:19:29.347Z,20.32
2022-10-26T16:21:58.962Z,20.06
2022-10-26T16:24:27.494Z,19.99
2022-10-26T16:26:59.824Z,19.96
2022-10-26T16:29:27.754Z,20.31
2022-10-26T16:31:55.661Z,20.61
2022-10-26T16:34:23.509Z,20.69
2022-10-26T16:36:53.433Z,20.69
2022-10-26T16:39:22.586Z,20.61
2022-10-26T16:41:51.748Z,20.70
2022-10-26T16:44:21.185Z,20.76
2022-10-26T16:46:49.100Z,20.67
2022-10-26T16:49:18.162Z,20.28
2022-10-26T16:51:46.075Z,20.23
2022-10-26T16:54:14.017Z,20.40
2022-10-26T16:56:43.096Z,20.41
2022-10-26T16:59:11.064Z,20.44
2022-10-26T17:01:40.682Z,20.55
2022-10-26T17:04:08.684Z,20.41
2022-10-26T17:06:36.606Z,20.24
2022-10-26T17:09:04.660Z,20.38
2022-10-26T17:11:32.733Z,20.52
2022-10-26T17:14:03.556Z,20.57
2022-10-26T17:16:38.678Z,20.24
2022-10-26T17:19:09.445Z,20.23
2022-10-26T17:21:37.807Z,20.05
2022-10-26T17:24:06.838Z,20.06
2022-10-26T17:26:35.401Z,20.10
2022-10-26T17:29:06.291Z,20.18
2022-10-26T17:31:34.853Z,20.32
2022-10-26T17:34:03.550Z,20.50
2022-10-26T17:36:38.193Z,20.38
2022-10-26T17:39:06.415Z,20.31
2022-10-26T17:41:34.409Z,20.25
2022-10-26T17:44:02.370Z,20.24
2022-10-26T17:46:30.306Z,20.22
2022-10-26T17:49:00.152Z,20.19
2022-10-26T17:51:29.789Z,20.06
2022-10-26T17:54:00.191Z,20.14
2022-10-26T17:56:29.670Z,20.23
2022-10-26T17:58:59.355Z,20.20
2022-10-26T18:01:28.471Z,20.09
2022-10-26T18:03:56.690Z,20.12
2022-10-26T18:06:25.409Z,20.18
2022-10-26T18:08:53.306Z,20.29
2022-10-26T18:11:27.152Z,20.34
2022-10-26T18:13:55.796Z,20.36
2022-10-26T18:16:24.664Z,20.48
2022-10-26T18:19:00.289Z,20.41
2022-10-26T18:21:30.176Z,20.42
2022-10-26T18:23:58.262Z,20.27
2022-10-26T18:26:28.919Z,20.23
2022-10-26T18:28:57.551Z,20.09
2022-10-26T18:31:26.451Z,20.14
2022-10-26T18:33:58.115Z,19.91
2022-10-26T18:36:26.907Z,19.60
2022-10-26T18:38:55.368Z,19.38
2022-10-26T18:41:26.314Z,19.37
2022-10-26T18:43:58.874Z,19.34
2022-10-26T18:46:30.355Z,19.33
2022-10-26T18:49:00.930Z,19.13
2022-10-26T18:51:33.333Z,19.29
2022-10-26T18:54:02.126Z,19.14
2022-10-26T18:56:30.135Z,19.07
2022-10-26T18:59:01.173Z,19.06
2022-10-26T19:01:34.724Z,19.00
2022-10-26T19:04:06.291Z,18.87
2022-10-26T19:06:36.045Z,19.17
2022-10-26T19:09:05.396Z,18.96
2022-10-26T19:11:33.333Z,18.96
2022-10-26T19:14:02.685Z,18.82
2022-10-26T19:16:45.429Z,18.80
2022-10-26T19:19:14.912Z,18.91
2022-10-26T19:21:42.867Z,19.09
2022-10-26T19:24:14.446Z,19.05
2022-10-26T19:26:44.027Z,19.01
2022-10-26T19:29:16.158Z,18.77
2022-10-26T19:31:45.767Z,18.94
2022-10-26T19:34:15.403Z,18.78
2022-10-26T19:36:45.103Z,18.77
2022-10-26T19:39:14.229Z,18.64
2022-10-26T19:41:42.379Z,18.65
2022-10-26T19:44:12.036Z,18.52
2022-10-26T19:46:41.737Z,18.60
2022-10-26T19:49:10.444Z,18.65
2022-10-26T19:51:38.350Z,18.66
2022-10-26T19:54:07.524Z,18.67
2022-10-26T19:56:37.083Z,18.66
2022-10-26T19:59:05.485Z,18.61
2022-10-26T20:01:34.120Z,18.65
2022-10-26T20:04:03.536Z,18.70
2022-10-26T20:06:31.780Z,18.78
2022-10-26T20:09:00.549Z,18.76
2022-10-26T20:11:29.277Z,18.77
2022-10-26T20:13:57.264Z,18.79
2022-10-26T20:16:25.565Z,18.77
2022-10-26T20:18:53.927Z,18.85
2022-10-26T20:21:23.304Z,18.76
2022-10-26T20:23:51.726Z,18.72
2022-10-26T20:26:21.296Z,18.34
2022-10-26T20:28:51.948Z,18.24
2022-10-26T20:31:23.037Z,18.07
2022-10-26T20:33:52.829Z,17.94
2022-10-26T20:36:21.225Z,17.85
2022-10-26T20:38:51.207Z,17.78
2022-10-26T20:41:19.912Z,17.98
2022-10-26T20:43:48.494Z,18.06
2022-10-26T20:46:23.487Z,17.94
2022-10-26T20:48:52.916Z,17.94
2022-10-26T20:51:26.924Z,17.94
2022-10-26T20:54:06.345Z,17.92
2022-10-26T20:56:35.191Z,17.88
2022-10-26T20:59:09.042Z,17.90
2022-10-26T21:01:38.687Z,17.70
2022-10-26T21:04:07.260Z,17.79
2022-10-26T21:06:40.164Z,18.04
2022-10-26T21:09:09.773Z,18.04
2022-10-26T21:11:37.751Z,18.05
2022-10-26T21:14:06.428Z,17.96
2022-10-26T21:16:34.293Z,17.93
2022-10-26T21:19:04.974Z,17.91
2022-10-26T21:21:32.914Z,17.74
2022-10-26T21:24:00.790Z,17.68
2022-10-26T21:26:30.113Z,17.71
2022-10-26T21:28:58.076Z,17.76
2022-10-26T21:31:26.026Z,17.69
2022-10-26T21:33:54.132Z,17.59
2022-10-26T21:36:22.530Z,17.65
2022-10-26T21:38:50.546Z,17.63
2022-10-26T21:41:20.259Z,17.64
2022-10-26T21:43:59.254Z,17.65
2022-10-26T21:46:37.577Z,17.67
2022-10-26T21:49:05.752Z,17.72
2022-10-26T21:51:35.030Z,17.72
2022-10-26T21:54:03.173Z,17.75
2022-10-26T21:56:31.132Z,17.83
2022-10-26T21:59:01.839Z,18.01
2022-10-26T22:01:30.017Z,17.94
2022-10-26T22:03:58.063Z,17.93
2022-10-26T22:06:25.953Z,18.03
2022-10-26T22:08:54.267Z,18.10
2022-10-26T22:11:24.107Z,18.12
2022-10-26T22:13:53.201Z,17.81
2022-10-26T22:16:30.926Z,17.83
2022-10-26T22:19:00.450Z,17.83
2022-10-26T22:21:28.969Z,17.94
2022-10-26T22:23:57.092Z,17.95
2022-10-26T22:26:26.387Z,17.96
2022-10-26T22:28:57.094Z,18.04
2022-10-26T22:34:06.598Z,18.24
2022-10-26T22:36:36.388Z,18.21
2022-10-26T22:39:04.725Z,18.21
2022-10-26T22:41:32.773Z,18.35
2022-10-26T22:44:00.669Z,18.62
2022-10-26T22:46:30.083Z,18.62
2022-10-26T22:48:59.871Z,18.58
2022-10-26T22:51:29.488Z,18.49
2022-10-26T22:54:00.212Z,18.31
2022-10-26T22:56:28.820Z,18.37
2022-10-26T22:58:56.936Z,18.27
2022-10-26T23:01:27.357Z,18.34
2022-10-26T23:03:57.044Z,18.43
2022-10-26T23:06:26.989Z,18.35
2022-10-26T23:08:55.097Z,18.29
2022-10-26T23:11:25.559Z,18.11
2022-10-26T23:13:54.249Z,18.15
2022-10-26T23:16:22.528Z,18.06
2022-10-26T23:18:50.821Z,17.97
2022-10-26T23:21:20.993Z,17.83
2022-10-26T23:23:49.142Z,18.02
2022-10-26T23:26:18.723Z,17.98
2022-10-26T23:28:48.476Z,17.87
2022-10-26T23:31:18.294Z,17.79
2022-10-26T23:33:46.799Z,17.76
2022-10-26T23:36:14.774Z,17.89
2022-10-26T23:38:44.016Z,18.00
2022-10-26T23:41:13.010Z,18.02
2022-10-26T23:43:41.842Z,18.06
2022-10-26T23:46:10.179Z,18.08
2022-10-26T23:48:38.074Z,18.13
2022-10-26T23:51:06.333Z,18.12
2022-10-26T23:53:34.228Z,18.08
2022-10-26T23:56:03.522Z,18.05
2022-10-26T23:58:31.474Z,18.03
